Time;durP1;ratioP1;P1;durP2;ratioP2;P2;SDS_P1;SDS_P2;PMS_P1;PMS_P2;Temp;Humidity;BMP_temperature;BMP_pressure;BME280_temperature;BME280_humidity;BME280_pressure;Samples;Min_cycle;Max_cycle;Signal;HPM_P1;HPM_P2
2023/04/23 00:01:07;;;;;;;;;;;;;;;;;;5072307;28;2137;-59
2023/04/23 00:03:35;;;;;;;;;;;;;;;;;;5072383;28;2010;-44
2023/04/23 00:06:06;;;;;;;;;;;;;;;;;;5072295;28;1762;-41
2023/04/23 00:08:34;;;;;;;;;;;;;;;;;;5071976;28;1911;-42
2023/04/23 00:11:01;;;;;;;;;;;;;;;;;;5071858;28;1956;-41
2023/04/23 00:13:29;;;;;;;;;;;;;;;;;;5072170;28;2081;-41
2023/04/23 00:15:56;;;;;;;;;;;;;;;;;;5071944;28;1979;-60
2023/04/23 00:18:24;;;;;;;;;;;;;;;;;;5072331;28;2125;-45
2023/04/23 00:20:51;;;;;;;;;;;;;;;;;;5072150;28;1954;-40
2023/04/23 00:23:18;;;;;;;;;;;;;;;;;;5072141;28;2121;-41
2023/04/23 00:25:45;;;;;;;;;;;;;;;;;;5071900;28;1985;-41
2023/04/23 00:28:12;;;;;;;;;;;;;;;;;;5071401;28;1885;-41
2023/04/23 00:30:40;;;;;;;;;;;;;;;;;;5071468;28;2020;-40
2023/04/23 00:33:07;;;;;;;;;;;;;;;;;;5071873;28;2127;-41
2023/04/23 00:35:34;;;;;;;;;;;;;;;;;;5071731;28;1953;-41
2023/04/23 00:38:02;;;;;;;;;;;;;;;;;;5071504;28;1912;-40
2023/04/23 00:40:29;;;;;;;;;;;;;;;;;;5071533;28;1770;-41
2023/04/23 00:42:57;;;;;;;;;;;;;;;;;;5071429;28;2207;-40
2023/04/23 00:45:24;;;;;;;;;;;;;;;;;;5070236;28;1962;-42
2023/04/23 00:47:52;;;;;;;;;;;;;;;;;;5051753;28;2039;-57
2023/04/23 00:50:20;;;;;;;;;;;;;;;;;;5051438;28;1949;-41
2023/04/23 00:52:47;;;;;;;;;;;;;;;;;;5051502;28;1894;-60
2023/04/23 00:55:14;;;;;;;;;;;;;;;;;;5070767;28;1746;-40
2023/04/23 00:57:42;;;;;;;;;;;;;;;;;;5071224;28;1879;-47
2023/04/23 01:00:12;;;;;;;;;;;;;;;;;;5070114;28;1770;-43
2023/04/23 01:02:42;;;;;;;;;;;;;;;;;;5071222;28;1875;-41
2023/04/23 01:05:10;;;;;;;;;;;;;;;;;;5071093;28;1838;-41
2023/04/23 01:07:37;;;;;;;;;;;;;;;;;;5071084;28;1970;-50
2023/04/23 01:10:05;;;;;;;;;;;;;;;;;;5070905;28;2012;-41
2023/04/23 01:12:33;;;;;;;;;;;;;;;;;;5071236;28;1740;-51
2023/04/23 01:15:01;;;;;;;;;;;;;;;;;;5071004;28;2066;-39
2023/04/23 01:17:28;;;;;;;;;;;;;;;;;;5071084;28;2091;-40
2023/04/23 01:19:56;;;;;;;;;;;;;;;;;;5071092;28;1981;-43
2023/04/23 01:22:23;;;;;;;;;;;;;;;;;;5071170;28;2009;-40
2023/04/23 01:24:50;;;;;;;;;;;;;;;;;;5070980;28;2007;-41
2023/04/23 01:27:19;;;;;;;;;;;;;;;;;;5069909;28;2182;-46
2023/04/23 01:29:46;;;;;;;;;;;;;;;;;;5071093;28;1993;-40
2023/04/23 01:32:14;;;;;;;;;;;;;;;;;;5071077;28;2047;-40
2023/04/23 01:34:42;;;;;;;;;;;;;;;;;;5071164;28;1877;-41
2023/04/23 01:37:10;;;;;;;;;;;;;;;;;;5071206;28;1879;-40
2023/04/23 01:39:37;;;;;;;;;;;;;;;;;;5071096;28;2047;-40
2023/04/23 01:42:06;;;;;;;;;;;;;;;;;;5069922;28;2036;-42
2023/04/23 01:44:33;;;;;;;;;;;;;;;;;;5069575;28;2002;-42
2023/04/23 01:47:00;;;;;;;;;;;;;;;;;;5097475;28;1998;-41
2023/04/23 01:49:27;;;;;;;;;;;;;;;;;;5111583;28;1826;-44
2023/04/23 01:51:54;;;;;;;;;;;;;;;;;;5115327;28;2140;-42
2023/04/23 01:54:21;;;;;;;;;;;;;;;;;;5102714;28;2056;-41
2023/04/23 01:56:53;;;;;;;;;;;;;;;;;;5076953;28;2003;-42
2023/04/23 01:59:21;;;;;;;;;;;;;;;;;;5076859;28;1943;-41
2023/04/23 02:01:48;;;;;;;;;;;;;;;;;;5094737;28;1794;-46
2023/04/23 02:04:16;;;;;;;;;;;;;;;;;;5076924;28;2057;-51
2023/04/23 02:06:46;;;;;;;;;;;;;;;;;;5076685;28;2111;-40
2023/04/23 02:09:13;;;;;;;;;;;;;;;;;;5094465;28;1951;-40
2023/04/23 02:11:40;;;;;;;;;;;;;;;;;;5094633;28;1913;-45
2023/04/23 02:14:08;;;;;;;;;;;;;;;;;;5096851;28;1563;-47
2023/04/23 02:16:35;;;;;;;;;;;;;;;;;;5096407;28;1901;-41
2023/04/23 02:19:03;;;;;;;;;;;;;;;;;;5096574;28;2161;-41
2023/04/23 02:21:30;;;;;;;;;;;;;;;;;;5115087;28;2054;-41
2023/04/23 02:23:57;;;;;;;;;;;;;;;;;;5115086;28;2039;-41
2023/04/23 02:26:25;;;;;;;;;;;;;;;;;;5096385;28;1907;-40
2023/04/23 02:28:52;;;;;;;;;;;;;;;;;;5114467;28;1993;-41
2023/04/23 02:31:19;;;;;;;;;;;;;;;;;;5114452;28;2004;-40
2023/04/23 02:33:47;;;;;;;;;;;;;;;;;;5096340;28;2347;-41
2023/04/23 02:36:14;;;;;;;;;;;;;;;;;;5114782;28;1916;-41
2023/04/23 02:38:43;;;;;;;;;;;;;;;;;;5114668;28;2007;-40
2023/04/23 02:41:11;;;;;;;;;;;;;;;;;;5095316;28;2368;-41
2023/04/23 02:43:38;;;;;;;;;;;;;;;;;;5114362;28;1869;-46
2023/04/23 02:46:08;;;;;;;;;;;;;;;;;;5096373;28;1962;-59
2023/04/23 02:48:37;;;;;;;;;;;;;;;;;;5114394;28;1849;-41
2023/04/23 02:51:05;;;;;;;;;;;;;;;;;;5096174;28;1910;-44
2023/04/23 02:53:32;;;;;;;;;;;;;;;;;;5108807;28;2055;-40
2023/04/23 02:56:00;;;;;;;;;;;;;;;;;;5075951;28;1913;-44
2023/04/23 02:58:29;;;;;;;;;;;;;;;;;;5076010;28;1854;-41
2023/04/23 03:00:59;;;;;;;;;;;;;;;;;;5074335;28;1952;-44
2023/04/23 03:03:30;;;;;;;;;;;;;;;;;;5075223;28;1935;-48
2023/04/23 03:06:02;;;;;;;;;;;;;;;;;;5075711;28;2035;-40
2023/04/23 03:08:30;;;;;;;;;;;;;;;;;;5097430;28;2041;-48
2023/04/23 03:10:57;;;;;;;;;;;;;;;;;;5113642;28;2061;-41
2023/04/23 03:13:25;;;;;;;;;;;;;;;;;;5095615;28;1900;-54
2023/04/23 03:15:54;;;;;;;;;;;;;;;;;;5095432;28;1631;-40
2023/04/23 03:18:21;;;;;;;;;;;;;;;;;;5114016;28;1993;-40
2023/04/23 03:20:51;;;;;;;;;;;;;;;;;;5095688;28;1845;-60
2023/04/23 03:23:19;;;;;;;;;;;;;;;;;;5113430;28;2025;-40
2023/04/23 03:25:47;;;;;;;;;;;;;;;;;;5091278;28;2058;-50
2023/04/23 03:28:14;;;;;;;;;;;;;;;;;;5074915;28;2055;-41
2023/04/23 03:30:41;;;;;;;;;;;;;;;;;;5093051;28;2073;-60
2023/04/23 03:33:08;;;;;;;;;;;;;;;;;;5074817;28;1969;-43
2023/04/23 03:35:36;;;;;;;;;;;;;;;;;;5074987;28;2107;-41
2023/04/23 03:38:08;;;;;;;;;;;;;;;;;;5074928;28;1993;-47
2023/04/23 03:40:36;;;;;;;;;;;;;;;;;;5074728;28;1998;-40
2023/04/23 03:43:06;;;;;;;;;;;;;;;;;;5074828;28;2098;-41
2023/04/23 03:46:02;;;;;;;;;;;;;;;;;;5095840;28;1908;-40
2023/04/23 03:48:33;;;;;;;;;;;;;;;;;;5113295;28;1930;-41
2023/04/23 03:51:06;;;;;;;;;;;;;;;;;;5094977;28;1975;-41
2023/04/23 03:53:47;;;;;;;;;;;;;;;;;;5094819;28;2018;-39
2023/04/23 03:56:44;;;;;;;;;;;;;;;;;;5103505;28;1885;-39
2023/04/23 03:59:15;;;;;;;;;;;;;;;;;;5094880;28;2334;-42
2023/04/23 04:01:44;;;;;;;;;;;;;;;;;;5094495;28;1884;-40
2023/04/23 04:04:11;;;;;;;;;;;;;;;;;;5112758;28;1933;-45
2023/04/23 04:06:38;;;;;;;;;;;;;;;;;;5113073;28;2099;-40
2023/04/23 04:09:07;;;;;;;;;;;;;;;;;;5112804;28;1975;-40
2023/04/23 04:11:34;;;;;;;;;;;;;;;;;;5113039;28;1974;-40
2023/04/23 04:14:01;;;;;;;;;;;;;;;;;;5112673;28;2008;-53
2023/04/23 04:16:28;;;;;;;;;;;;;;;;;;5112695;28;1887;-45
2023/04/23 04:18:55;;;;;;;;;;;;;;;;;;5112607;28;1869;-41
2023/04/23 04:21:23;;;;;;;;;;;;;;;;;;5112729;28;2016;-41
2023/04/23 04:23:50;;;;;;;;;;;;;;;;;;5112325;28;2227;-40
2023/04/23 04:26:17;;;;;;;;;;;;;;;;;;5112636;28;1878;-41
2023/04/23 04:28:44;;;;;;;;;;;;;;;;;;5112168;28;1974;-41
2023/04/23 04:31:13;;;;;;;;;;;;;;;;;;5112379;28;1979;-39
2023/04/23 04:33:45;;;;;;;;;;;;;;;;;;5112509;28;1976;-44
2023/04/23 04:36:12;;;;;;;;;;;;;;;;;;5112239;28;2084;-40
2023/04/23 04:38:40;;;;;;;;;;;;;;;;;;5112757;28;2003;-40
2023/04/23 04:41:07;;;;;;;;;;;;;;;;;;5112681;28;2167;-60
2023/04/23 04:43:36;;;;;;;;;;;;;;;;;;5112143;28;1888;-39
2023/04/23 04:46:04;;;;;;;;;;;;;;;;;;5111975;28;1987;-43
2023/04/23 04:48:33;;;;;;;;;;;;;;;;;;5112027;28;1885;-40
2023/04/23 04:51:00;;;;;;;;;;;;;;;;;;5111922;28;1905;-40
2023/04/23 04:53:27;;;;;;;;;;;;;;;;;;5106754;28;2068;-40
2023/04/23 04:55:54;;;;;;;;;;;;;;;;;;5091514;28;1899;-40
2023/04/23 04:58:21;;;;;;;;;;;;;;;;;;5091549;28;1976;-40
2023/04/23 05:00:50;;;;;;;;;;;;;;;;;;5091761;28;1958;-40
2023/04/23 05:03:18;;;;;;;;;;;;;;;;;;5091137;28;1846;-51
2023/04/23 05:05:46;;;;;;;;;;;;;;;;;;5091563;28;1862;-40
2023/04/23 05:08:17;;;;;;;;;;;;;;;;;;5091387;28;2102;-40
2023/04/23 05:10:45;;;;;;;;;;;;;;;;;;5111473;28;2174;-40
2023/04/23 05:13:12;;;;;;;;;;;;;;;;;;5093623;28;2535;-40
2023/04/23 05:15:39;;;;;;;;;;;;;;;;;;5111803;28;2043;-40
2023/04/23 05:18:08;;;;;;;;;;;;;;;;;;5111656;28;2063;-45
2023/04/23 05:20:36;;;;;;;;;;;;;;;;;;5111798;28;1896;-56
2023/04/23 05:23:03;;;;;;;;;;;;;;;;;;5111007;28;2119;-40
2023/04/23 05:25:30;;;;;;;;;;;;;;;;;;5111024;28;1832;-40
2023/04/23 05:27:58;;;;;;;;;;;;;;;;;;5111606;28;1931;-41
2023/04/23 05:30:25;;;;;;;;;;;;;;;;;;5111276;28;2001;-54
2023/04/23 05:32:52;;;;;;;;;;;;;;;;;;5111506;28;1999;-40
2023/04/23 05:35:19;;;;;;;;;;;;;;;;;;5111475;28;2062;-47
2023/04/23 05:37:46;;;;;;;;;;;;;;;;;;5111633;28;2192;-59
2023/04/23 05:40:13;;;;;;;;;;;;;;;;;;5111509;28;2233;-40
2023/04/23 05:42:41;;;;;;;;;;;;;;;;;;5111523;28;2144;-43
2023/04/23 05:45:08;;;;;;;;;;;;;;;;;;5093609;28;1817;-42
2023/04/23 05:47:35;;;;;;;;;;;;;;;;;;5111542;28;2142;-41
2023/04/23 05:50:02;;;;;;;;;;;;;;;;;;5111485;28;1955;-47
2023/04/23 05:52:32;;;;;;;;;;;;;;;;;;5111195;28;1914;-41
2023/04/23 05:54:59;;;;;;;;;;;;;;;;;;5111264;28;1978;-49
2023/04/23 05:57:26;;;;;;;;;;;;;;;;;;5111235;28;1636;-41
2023/04/23 05:59:53;;;;;;;;;;;;;;;;;;5111296;28;2119;-40
2023/04/23 06:02:20;;;;;;;;;;;;;;;;;;5111625;28;1984;-45
2023/04/23 06:04:50;;;;;;;;;;;;;;;;;;5111502;28;1928;-42
2023/04/23 06:07:18;;;;;;;;;;;;;;;;;;5111135;28;2058;-40
2023/04/23 06:09:45;;;;;;;;;;;;;;;;;;5111375;28;1948;-41
2023/04/23 06:12:12;;;;;;;;;;;;;;;;;;5093206;28;2073;-40
2023/04/23 06:14:39;;;;;;;;;;;;;;;;;;5111075;28;2145;-42
2023/04/23 06:17:07;;;;;;;;;;;;;;;;;;5111101;28;1822;-40
2023/04/23 06:19:34;;;;;;;;;;;;;;;;;;5111238;28;1907;-40
2023/04/23 06:22:01;;;;;;;;;;;;;;;;;;5111165;28;2065;-42
2023/04/23 06:24:28;;;;;;;;;;;;;;;;;;5110781;28;1809;-40
2023/04/23 06:26:56;;;;;;;;;;;;;;;;;;5110939;28;2197;-40
2023/04/23 06:29:25;;;;;;;;;;;;;;;;;;5092699;28;1938;-40
2023/04/23 06:32:00;;;;;;;;;;;;;;;;;;5092659;28;2379;-41
2023/04/23 06:34:27;;;;;;;;;;;;;;;;;;5111060;28;1982;-47
2023/04/23 06:36:54;;;;;;;;;;;;;;;;;;5113486;28;2034;-41
2023/04/23 06:39:21;;;;;;;;;;;;;;;;;;5114795;28;2316;-38
2023/04/23 06:41:48;;;;;;;;;;;;;;;;;;5114588;28;2117;-41
2023/04/23 06:44:21;;;;;;;;;;;;;;;;;;5114221;28;2046;-41
2023/04/23 06:46:51;;;;;;;;;;;;;;;;;;5114616;28;1487;-63
2023/04/23 06:49:18;;;;;;;;;;;;;;;;;;5111748;28;1881;-43
2023/04/23 06:51:45;;;;;;;;;;;;;;;;;;5093927;28;1923;-53
2023/04/23 06:54:13;;;;;;;;;;;;;;;;;;5105258;28;2040;-42
2023/04/23 06:56:40;;;;;;;;;;;;;;;;;;5114345;28;2110;-62
2023/04/23 06:59:07;;;;;;;;;;;;;;;;;;5114431;28;1718;-42
2023/04/23 07:01:42;;;;;;;;;;;;;;;;;;5095759;28;1939;-42
2023/04/23 07:04:09;;;;;;;;;;;;;;;;;;5113877;28;2029;-41
2023/04/23 07:06:39;;;;;;;;;;;;;;;;;;5114018;28;2003;-42
2023/04/23 07:09:07;;;;;;;;;;;;;;;;;;5114160;28;1962;-41
2023/04/23 07:11:35;;;;;;;;;;;;;;;;;;5113862;28;2113;-41
2023/04/23 07:14:02;;;;;;;;;;;;;;;;;;5114008;28;1907;-44
2023/04/23 07:16:32;;;;;;;;;;;;;;;;;;5113903;28;1759;-42
2023/04/23 07:19:00;;;;;;;;;;;;;;;;;;5114041;28;1998;-42
2023/04/23 07:21:28;;;;;;;;;;;;;;;;;;5113958;28;2083;-62
2023/04/23 07:23:55;;;;;;;;;;;;;;;;;;5113783;28;2033;-41
2023/04/23 07:26:23;;;;;;;;;;;;;;;;;;5113883;28;1864;-40
2023/04/23 07:28:50;;;;;;;;;;;;;;;;;;5113952;28;1958;-40
2023/04/23 07:31:19;;;;;;;;;;;;;;;;;;5114006;28;2158;-40
2023/04/23 07:33:47;;;;;;;;;;;;;;;;;;5113811;28;2347;-39
2023/04/23 07:36:14;;;;;;;;;;;;;;;;;;5113849;28;2007;-40
2023/04/23 07:38:41;;;;;;;;;;;;;;;;;;5113239;28;1996;-42
2023/04/23 07:41:09;;;;;;;;;;;;;;;;;;5113316;28;2006;-40
2023/04/23 07:43:37;;;;;;;;;;;;;;;;;;5113839;28;2109;-40
2023/04/23 07:46:05;;;;;;;;;;;;;;;;;;5113151;28;1936;-41
2023/04/23 07:48:35;;;;;;;;;;;;;;;;;;5112590;28;1957;-40
2023/04/23 07:51:02;;;;;;;;;;;;;;;;;;5113274;28;2011;-39
2023/04/23 07:53:29;;;;;;;;;;;;;;;;;;5107612;28;2063;-40
2023/04/23 07:55:56;;;;;;;;;;;;;;;;;;5092563;28;2020;-43
2023/04/23 07:58:24;;;;;;;;;;;;;;;;;;5092566;28;1864;-43
2023/04/23 08:00:51;;;;;;;;;;;;;;;;;;5092776;28;1949;-39
2023/04/23 08:03:18;;;;;;;;;;;;;;;;;;5092875;28;1879;-40
2023/04/23 08:05:45;;;;;;;;;;;;;;;;;;5092477;28;2011;-41
2023/04/23 08:08:12;;;;;;;;;;;;;;;;;;5093002;28;1894;-40
2023/04/23 08:10:40;;;;;;;;;;;;;;;;;;5092543;28;2076;-40
2023/04/23 08:13:07;;;;;;;;;;;;;;;;;;5092425;28;1981;-40
2023/04/23 08:15:34;;;;;;;;;;;;;;;;;;5092316;28;1817;-40
2023/04/23 08:18:03;;;;;;;;;;;;;;;;;;5092344;28;1927;-41
2023/04/23 08:20:31;;;;;;;;;;;;;;;;;;5092314;28;2027;-40
2023/04/23 08:22:58;;;;;;;;;;;;;;;;;;5092551;28;2152;-41
2023/04/23 08:25:25;;;;;;;;;;;;;;;;;;5091966;28;1892;-48
2023/04/23 08:27:53;;;;;;;;;;;;;;;;;;5074347;28;2248;-40
2023/04/23 08:30:20;;;;;;;;;;;;;;;;;;5092519;28;2055;-43
2023/04/23 08:32:48;;;;;;;;;;;;;;;;;;5092044;28;2124;-40
2023/04/23 08:35:15;;;;;;;;;;;;;;;;;;5091571;28;1952;-42
2023/04/23 08:37:43;;;;;;;;;;;;;;;;;;5092006;28;1906;-49
2023/04/23 08:40:10;;;;;;;;;;;;;;;;;;5107339;28;1900;-40
2023/04/23 08:42:43;;;;;;;;;;;;;;;;;;5112314;28;2005;-41
2023/04/23 08:45:11;;;;;;;;;;;;;;;;;;5112122;28;1946;-42
2023/04/23 08:47:41;;;;;;;;;;;;;;;;;;5112156;28;1956;-42
2023/04/23 08:50:10;;;;;;;;;;;;;;;;;;5112048;28;1928;-40
2023/04/23 08:52:39;;;;;;;;;;;;;;;;;;5111919;28;1979;-40
2023/04/23 08:55:10;;;;;;;;;;;;;;;;;;5111839;28;2039;-39
2023/04/23 08:57:39;;;;;;;;;;;;;;;;;;5111919;28;1980;-44
2023/04/23 09:00:07;;;;;;;;;;;;;;;;;;5111813;28;2114;-40
2023/04/23 09:02:35;;;;;;;;;;;;;;;;;;5111901;28;1638;-41
2023/04/23 09:05:03;;;;;;;;;;;;;;;;;;5111454;28;2106;-40
2023/04/23 09:07:30;;;;;;;;;;;;;;;;;;5111803;28;2102;-41
2023/04/23 09:09:57;;;;;;;;;;;;;;;;;;5112107;28;1979;-40
2023/04/23 09:12:24;;;;;;;;;;;;;;;;;;5111994;28;1976;-41
2023/04/23 09:14:51;;;;;;;;;;;;;;;;;;5102098;28;2061;-42
2023/04/23 09:17:19;;;;;;;;;;;;;;;;;;5091442;28;2345;-40
2023/04/23 09:19:47;;;;;;;;;;;;;;;;;;5091646;28;2449;-44
2023/04/23 09:22:16;;;;;;;;;;;;;;;;;;5091407;28;2136;-40
2023/04/23 09:24:43;;;;;;;;;;;;;;;;;;5091316;28;2282;-40
2023/04/23 09:27:11;;;;;;;;;;;;;;;;;;5091623;28;1924;-40
2023/04/23 09:29:43;;;;;;;;;;;;;;;;;;5091349;28;2019;-39
2023/04/23 09:32:10;;;;;;;;;;;;;;;;;;5091097;28;1933;-40
2023/04/23 09:34:37;;;;;;;;;;;;;;;;;;5090950;28;1968;-40
2023/04/23 09:37:06;;;;;;;;;;;;;;;;;;5091176;28;2045;-49
2023/04/23 09:39:34;;;;;;;;;;;;;;;;;;5091166;28;1950;-41
2023/04/23 09:42:03;;;;;;;;;;;;;;;;;;5091065;28;2078;-42
2023/04/23 09:44:33;;;;;;;;;;;;;;;;;;5090901;28;1977;-40
2023/04/23 09:47:13;;;;;;;;;;;;;;;;;;5073368;28;2043;-40
2023/04/23 09:49:47;;;;;;;;;;;;;;;;;;5090963;28;2004;-41
2023/04/23 09:52:15;;;;;;;;;;;;;;;;;;5091037;28;2098;-40
2023/04/23 09:54:45;;;;;;;;;;;;;;;;;;5106081;28;1414;-40
2023/04/23 09:57:12;;;;;;;;;;;;;;;;;;5111205;28;1942;-41
2023/04/23 09:59:39;;;;;;;;;;;;;;;;;;5111426;28;2060;-40
2023/04/23 10:02:11;;;;;;;;;;;;;;;;;;5094094;28;2017;-40
2023/04/23 10:04:38;;;;;;;;;;;;;;;;;;5111249;28;1870;-40
2023/04/23 10:07:07;;;;;;;;;;;;;;;;;;5111790;28;2043;-40
2023/04/23 10:09:44;;;;;;;;;;;;;;;;;;5111244;28;2160;-41
2023/04/23 10:12:12;;;;;;;;;;;;;;;;;;5096182;28;2187;-40
2023/04/23 10:14:59;;;;;;;;;;;;;;;;;;5115568;28;1946;-40
2023/04/23 10:17:26;;;;;;;;;;;;;;;;;;5114928;28;1857;-41
2023/04/23 10:19:54;;;;;;;;;;;;;;;;;;5114969;28;2113;-54
2023/04/23 10:22:22;;;;;;;;;;;;;;;;;;5115045;28;1976;-42
2023/04/23 10:24:51;;;;;;;;;;;;;;;;;;5114841;28;2001;-41
2023/04/23 10:27:19;;;;;;;;;;;;;;;;;;5114888;28;2041;-41
2023/04/23 10:29:50;;;;;;;;;;;;;;;;;;5114801;28;1644;-42
2023/04/23 10:32:18;;;;;;;;;;;;;;;;;;5114974;28;1986;-41
2023/04/23 10:34:45;;;;;;;;;;;;;;;;;;5114866;28;1961;-40
2023/04/23 10:37:14;;;;;;;;;;;;;;;;;;5115153;28;2225;-59
2023/04/23 10:39:43;;;;;;;;;;;;;;;;;;5115028;28;2123;-43
2023/04/23 10:42:12;;;;;;;;;;;;;;;;;;5096955;28;2026;-40
2023/04/23 10:44:41;;;;;;;;;;;;;;;;;;5114517;28;1999;-41
2023/04/23 10:47:13;;;;;;;;;;;;;;;;;;5114390;28;1901;-41
2023/04/23 10:49:40;;;;;;;;;;;;;;;;;;5114348;28;1981;-43
2023/04/23 10:52:09;;;;;;;;;;;;;;;;;;5114675;28;1885;-43
2023/04/23 10:54:40;;;;;;;;;;;;;;;;;;5098887;28;2012;-40
2023/04/23 10:57:09;;;;;;;;;;;;;;;;;;5093898;28;1946;-40
2023/04/23 10:59:39;;;;;;;;;;;;;;;;;;5093645;28;2008;-45
2023/04/23 11:02:07;;;;;;;;;;;;;;;;;;5094051;28;1950;-41
2023/04/23 11:04:35;;;;;;;;;;;;;;;;;;5093828;28;1919;-41
2023/04/23 11:07:06;;;;;;;;;;;;;;;;;;5093932;28;1975;-40
2023/04/23 11:09:33;;;;;;;;;;;;;;;;;;5094070;28;1956;-40
2023/04/23 11:12:01;;;;;;;;;;;;;;;;;;5093900;28;1887;-53
2023/04/23 11:14:40;;;;;;;;;;;;;;;;;;5093789;28;1964;-41
2023/04/23 11:17:10;;;;;;;;;;;;;;;;;;5093681;28;2200;-41
2023/04/23 11:19:37;;;;;;;;;;;;;;;;;;5093774;28;2006;-41
2023/04/23 11:22:19;;;;;;;;;;;;;;;;;;5092973;28;2157;-49
2023/04/23 11:24:46;;;;;;;;;;;;;;;;;;5093550;28;1636;-50
2023/04/23 11:27:17;;;;;;;;;;;;;;;;;;5093506;28;2067;-40
2023/04/23 11:29:45;;;;;;;;;;;;;;;;;;5093579;28;2035;-41
2023/04/23 11:32:16;;;;;;;;;;;;;;;;;;5075289;28;2631;-42
2023/04/23 11:34:43;;;;;;;;;;;;;;;;;;5093320;28;1909;-41
2023/04/23 11:37:12;;;;;;;;;;;;;;;;;;5093085;28;1987;-40
2023/04/23 11:39:40;;;;;;;;;;;;;;;;;;5093239;28;2185;-41
2023/04/23 11:42:10;;;;;;;;;;;;;;;;;;5093035;28;1931;-41
2023/04/23 11:44:39;;;;;;;;;;;;;;;;;;5093140;28;1885;-41
2023/04/23 11:47:07;;;;;;;;;;;;;;;;;;5093148;28;1834;-58
2023/04/23 11:49:36;;;;;;;;;;;;;;;;;;5093053;28;2052;-41
2023/04/23 11:52:04;;;;;;;;;;;;;;;;;;5093184;28;2004;-41
2023/04/23 11:54:32;;;;;;;;;;;;;;;;;;5089063;28;2216;-41
2023/04/23 11:57:00;;;;;;;;;;;;;;;;;;5113004;28;2076;-40
2023/04/23 11:59:27;;;;;;;;;;;;;;;;;;5113323;28;1937;-40
2023/04/23 12:01:55;;;;;;;;;;;;;;;;;;5113285;28;1958;-41
2023/04/23 12:04:24;;;;;;;;;;;;;;;;;;5112922;28;2006;-41
2023/04/23 12:06:52;;;;;;;;;;;;;;;;;;5112857;28;1871;-40
2023/04/23 12:09:20;;;;;;;;;;;;;;;;;;5112986;28;2129;-43
2023/04/23 12:11:49;;;;;;;;;;;;;;;;;;5113070;28;1932;-40
2023/04/23 12:14:19;;;;;;;;;;;;;;;;;;5112811;28;1963;-41
2023/04/23 12:16:51;;;;;;;;;;;;;;;;;;5112409;28;1999;-57
2023/04/23 12:19:20;;;;;;;;;;;;;;;;;;5112685;28;1890;-40
2023/04/23 12:21:54;;;;;;;;;;;;;;;;;;5112729;28;1944;-59
2023/04/23 12:24:22;;;;;;;;;;;;;;;;;;5112669;28;1839;-41
2023/04/23 12:26:57;;;;;;;;;;;;;;;;;;5112657;28;2036;-40
2023/04/23 12:29:24;;;;;;;;;;;;;;;;;;5112494;28;2114;-47
2023/04/23 12:31:52;;;;;;;;;;;;;;;;;;5112181;28;2174;-41
2023/04/23 12:34:20;;;;;;;;;;;;;;;;;;5112205;28;1929;-44
2023/04/23 12:36:51;;;;;;;;;;;;;;;;;;5112218;28;1956;-40
2023/04/23 12:39:26;;;;;;;;;;;;;;;;;;5112238;28;2010;-41
2023/04/23 12:41:55;;;;;;;;;;;;;;;;;;5112522;28;2027;-41
2023/04/23 12:44:22;;;;;;;;;;;;;;;;;;5112255;28;2016;-52
2023/04/23 12:47:02;;;;;;;;;;;;;;;;;;5112448;28;1988;-41
2023/04/23 12:49:30;;;;;;;;;;;;;;;;;;5112303;28;1961;-43
2023/04/23 12:52:01;;;;;;;;;;;;;;;;;;5112185;28;1822;-40
2023/04/23 12:54:33;;;;;;;;;;;;;;;;;;5112090;28;2056;-39
2023/04/23 12:57:03;;;;;;;;;;;;;;;;;;5112156;28;2085;-47
2023/04/23 12:59:30;;;;;;;;;;;;;;;;;;5111676;28;1836;-41
2023/04/23 13:02:00;;;;;;;;;;;;;;;;;;5111182;28;2140;-40
2023/04/23 13:04:33;;;;;;;;;;;;;;;;;;5110248;28;2093;-41
2023/04/23 13:07:00;;;;;;;;;;;;;;;;;;5111940;28;2095;-40
2023/04/23 13:09:28;;;;;;;;;;;;;;;;;;5111784;28;1936;-44
2023/04/23 13:11:55;;;;;;;;;;;;;;;;;;5111778;28;2113;-40
2023/04/23 13:14:22;;;;;;;;;;;;;;;;;;5111534;28;1966;-40
2023/04/23 13:16:49;;;;;;;;;;;;;;;;;;5111447;28;1997;-40
2023/04/23 13:19:17;;;;;;;;;;;;;;;;;;5111551;28;1741;-42
2023/04/23 13:21:44;;;;;;;;;;;;;;;;;;5111035;28;2108;-41
2023/04/23 13:24:11;;;;;;;;;;;;;;;;;;5093626;28;1978;-40
2023/04/23 13:26:38;;;;;;;;;;;;;;;;;;5111824;28;1935;-40
2023/04/23 13:29:05;;;;;;;;;;;;;;;;;;5111612;28;1931;-42
2023/04/23 13:31:33;;;;;;;;;;;;;;;;;;5111516;28;1957;-41
2023/04/23 13:34:01;;;;;;;;;;;;;;;;;;5111613;28;2003;-44
2023/04/23 13:36:29;;;;;;;;;;;;;;;;;;5111266;28;2107;-43
2023/04/23 13:38:56;;;;;;;;;;;;;;;;;;5111292;28;1879;-42
2023/04/23 13:41:23;;;;;;;;;;;;;;;;;;5111370;28;1922;-42
2023/04/23 13:43:53;;;;;;;;;;;;;;;;;;5111535;28;2036;-40
2023/04/23 13:46:20;;;;;;;;;;;;;;;;;;5113061;28;2041;-40
2023/04/23 13:48:47;;;;;;;;;;;;;;;;;;5115666;28;1987;-47
2023/04/23 13:51:14;;;;;;;;;;;;;;;;;;5115829;28;2038;-40
2023/04/23 13:53:59;;;;;;;;;;;;;;;;;;5105902;28;1917;-47
2023/04/23 13:56:26;;;;;;;;;;;;;;;;;;5095051;28;2502;-40
2023/04/23 13:58:54;;;;;;;;;;;;;;;;;;5095082;28;2119;-42
2023/04/23 14:01:28;;;;;;;;;;;;;;;;;;5094788;28;1845;-42
2023/04/23 14:03:58;;;;;;;;;;;;;;;;;;5094914;28;2135;-44
2023/04/23 14:06:26;;;;;;;;;;;;;;;;;;5094989;28;1811;-40
2023/04/23 14:08:53;;;;;;;;;;;;;;;;;;5094753;28;2164;-41
2023/04/23 14:11:21;;;;;;;;;;;;;;;;;;5094640;28;1951;-41
2023/04/23 14:13:48;;;;;;;;;;;;;;;;;;5094729;28;2063;-41
2023/04/23 14:16:16;;;;;;;;;;;;;;;;;;5094869;28;1832;-41
2023/04/23 14:18:43;;;;;;;;;;;;;;;;;;5094703;28;2119;-41
2023/04/23 14:21:11;;;;;;;;;;;;;;;;;;5094580;28;2042;-47
2023/04/23 14:23:46;;;;;;;;;;;;;;;;;;5094285;28;1909;-40
2023/04/23 14:26:22;;;;;;;;;;;;;;;;;;5094339;28;2034;-58
2023/04/23 14:28:51;;;;;;;;;;;;;;;;;;5094306;28;1753;-43
2023/04/23 14:31:18;;;;;;;;;;;;;;;;;;5094415;28;2215;-40
2023/04/23 14:33:46;;;;;;;;;;;;;;;;;;5094580;28;1975;-41
2023/04/23 14:36:13;;;;;;;;;;;;;;;;;;5094265;28;1956;-46
2023/04/23 14:38:40;;;;;;;;;;;;;;;;;;5094158;28;2032;-42
2023/04/23 14:41:07;;;;;;;;;;;;;;;;;;5094085;28;2074;-41
2023/04/23 14:43:36;;;;;;;;;;;;;;;;;;5094236;28;2044;-54
2023/04/23 14:46:03;;;;;;;;;;;;;;;;;;5094061;28;1898;-41
2023/04/23 14:48:31;;;;;;;;;;;;;;;;;;5094100;28;2155;-41
2023/04/23 14:50:58;;;;;;;;;;;;;;;;;;5094074;28;1991;-40
2023/04/23 14:53:26;;;;;;;;;;;;;;;;;;5093882;28;1982;-41
2023/04/23 14:55:53;;;;;;;;;;;;;;;;;;5094038;28;2024;-41
2023/04/23 14:58:20;;;;;;;;;;;;;;;;;;5093623;28;1916;-42
2023/04/23 15:00:48;;;;;;;;;;;;;;;;;;5093878;28;1997;-56
2023/04/23 15:03:15;;;;;;;;;;;;;;;;;;5093824;28;1896;-40
2023/04/23 15:05:42;;;;;;;;;;;;;;;;;;5093509;28;2007;-40
2023/04/23 15:08:10;;;;;;;;;;;;;;;;;;5093775;28;1895;-40
2023/04/23 15:10:37;;;;;;;;;;;;;;;;;;5093805;28;2097;-39
2023/04/23 15:13:15;;;;;;;;;;;;;;;;;;5093658;28;2008;-41
2023/04/23 15:15:47;;;;;;;;;;;;;;;;;;5093349;28;2009;-40
2023/04/23 15:18:15;;;;;;;;;;;;;;;;;;5093594;28;2154;-41
2023/04/23 15:20:43;;;;;;;;;;;;;;;;;;5093606;28;1928;-39
2023/04/23 15:23:10;;;;;;;;;;;;;;;;;;5093194;28;2075;-45
2023/04/23 15:25:38;;;;;;;;;;;;;;;;;;5093395;28;2084;-40
2023/04/23 15:28:05;;;;;;;;;;;;;;;;;;5093522;28;1987;-39
2023/04/23 15:30:33;;;;;;;;;;;;;;;;;;5093440;28;1891;-40
2023/04/23 15:33:01;;;;;;;;;;;;;;;;;;5093318;28;1960;-39
2023/04/23 15:35:28;;;;;;;;;;;;;;;;;;5093174;28;1982;-46
2023/04/23 15:37:56;;;;;;;;;;;;;;;;;;5075128;28;2072;-39
2023/04/23 15:40:23;;;;;;;;;;;;;;;;;;5093168;28;2370;-39
2023/04/23 15:42:50;;;;;;;;;;;;;;;;;;5092821;28;2152;-40
2023/04/23 15:45:17;;;;;;;;;;;;;;;;;;5093231;28;1849;-39
2023/04/23 15:47:44;;;;;;;;;;;;;;;;;;5092577;28;1980;-39
2023/04/23 15:50:12;;;;;;;;;;;;;;;;;;5092917;28;1844;-39
2023/04/23 15:52:40;;;;;;;;;;;;;;;;;;5092841;28;2049;-40
2023/04/23 15:55:08;;;;;;;;;;;;;;;;;;5111801;28;2067;-39
2023/04/23 15:57:35;;;;;;;;;;;;;;;;;;5113350;28;1872;-39
2023/04/23 16:00:04;;;;;;;;;;;;;;;;;;5113018;28;2033;-39
2023/04/23 16:02:37;;;;;;;;;;;;;;;;;;5113047;28;1858;-40
2023/04/23 16:05:04;;;;;;;;;;;;;;;;;;5112922;28;2137;-40
2023/04/23 16:07:31;;;;;;;;;;;;;;;;;;5113028;28;1942;-39
2023/04/23 16:09:59;;;;;;;;;;;;;;;;;;5112037;28;2058;-39
2023/04/23 16:12:26;;;;;;;;;;;;;;;;;;5112998;28;1968;-39
2023/04/23 16:14:53;;;;;;;;;;;;;;;;;;5112520;28;1919;-40
2023/04/23 16:17:20;;;;;;;;;;;;;;;;;;5112162;28;1961;-39
2023/04/23 16:19:47;;;;;;;;;;;;;;;;;;5111841;28;1972;-39
2023/04/23 16:22:16;;;;;;;;;;;;;;;;;;5111380;28;1910;-41
2023/04/23 16:24:43;;;;;;;;;;;;;;;;;;5112071;28;2004;-39
2023/04/23 16:27:10;;;;;;;;;;;;;;;;;;5111806;28;1988;-39
2023/04/23 16:29:38;;;;;;;;;;;;;;;;;;5111707;28;2073;-39
2023/04/23 16:32:06;;;;;;;;;;;;;;;;;;5111208;28;1780;-38
2023/04/23 16:34:33;;;;;;;;;;;;;;;;;;5111088;28;2068;-39
2023/04/23 16:37:01;;;;;;;;;;;;;;;;;;5111328;28;1998;-40
2023/04/23 16:39:28;;;;;;;;;;;;;;;;;;5111423;28;1828;-45
2023/04/23 16:41:55;;;;;;;;;;;;;;;;;;5111371;28;1909;-39
2023/04/23 16:44:23;;;;;;;;;;;;;;;;;;5111524;28;1767;-40
2023/04/23 16:46:51;;;;;;;;;;;;;;;;;;5111327;28;2136;-39
2023/04/23 16:49:18;;;;;;;;;;;;;;;;;;5111074;28;2147;-40
2023/04/23 16:51:45;;;;;;;;;;;;;;;;;;5111075;28;1834;-38
2023/04/23 16:54:12;;;;;;;;;;;;;;;;;;5099438;28;2131;-39
2023/04/23 16:56:41;;;;;;;;;;;;;;;;;;5090557;28;1934;-40
2023/04/23 16:59:08;;;;;;;;;;;;;;;;;;5072845;28;1754;-39
2023/04/23 17:01:35;;;;;;;;;;;;;;;;;;5090681;28;1964;-39
2023/04/23 17:04:02;;;;;;;;;;;;;;;;;;5090554;28;1960;-45
2023/04/23 17:06:30;;;;;;;;;;;;;;;;;;5089318;28;1854;-42
2023/04/23 17:08:59;;;;;;;;;;;;;;;;;;5090719;28;2048;-39
2023/04/23 17:11:27;;;;;;;;;;;;;;;;;;5090396;28;2106;-39